Time;durP1;ratioP1;P1;durP2;ratioP2;P2;SDS_P1;SDS_P2;PMS_P1;PMS_P2;Temp;Humidity;BMP_temperature;BMP_pressure;BME280_temperature;BME280_humidity;BME280_pressure;Samples;Min_cycle;Max_cycle;Signal;HPM_P1;HPM_P2
2021/01/13 00:00:23;;;;;;;8.93;6.28;;;1.30;95.30;;;;;;5064624;28;20417;-66
2021/01/13 00:02:49;;;;;;;12.85;6.82;;;1.30;95.50;;;;;;5061757;28;20386;-66
2021/01/13 00:05:16;;;;;;;8.45;7.20;;;1.40;95.50;;;;;;5060878;28;20211;-67
2021/01/13 00:07:44;;;;;;;8.02;6.55;;;1.40;95.50;;;;;;5060412;28;20416;-66
2021/01/13 00:10:12;;;;;;;7.85;6.68;;;1.70;95.50;;;;;;5061247;28;20281;-66
2021/01/13 00:12:39;;;;;;;7.97;6.10;;;1.40;95.30;;;;;;5061878;28;20226;-66
2021/01/13 00:15:07;;;;;;;7.57;6.85;;;1.50;95.40;;;;;;5061304;28;20210;-66
2021/01/13 00:17:34;;;;;;;7.32;5.50;;;1.60;95.30;;;;;;5062210;28;20230;-66
2021/01/13 00:20:01;;;;;;;8.75;6.50;;;2.30;95.20;;;;;;5061355;28;20204;-67
2021/01/13 00:22:27;;;;;;;9.00;6.20;;;1.70;95.10;;;;;;5066881;28;20448;-66
2021/01/13 00:24:54;;;;;;;7.75;6.68;;;1.80;95.00;;;;;;5066439;28;20207;-67
2021/01/13 00:27:21;;;;;;;7.18;5.68;;;2.20;94.80;;;;;;5077461;28;20207;-67
2021/01/13 00:29:49;;;;;;;10.02;6.85;;;2.00;94.50;;;;;;5062255;28;20270;-65
2021/01/13 00:32:16;;;;;;;9.85;5.85;;;2.20;94.40;;;;;;5066452;28;20222;-67
2021/01/13 00:34:43;;;;;;;9.20;7.22;;;1.80;94.30;;;;;;5076312;28;20544;-67
2021/01/13 00:37:10;;;;;;;17.90;7.82;;;1.70;94.60;;;;;;5076091;28;20203;-67
2021/01/13 00:39:38;;;;;;;8.60;6.80;;;1.70;94.80;;;;;;5076249;28;20206;-66
2021/01/13 00:42:05;;;;;;;10.43;6.25;;;1.70;94.80;;;;;;5077423;28;20207;-66
2021/01/13 00:44:31;;;;;;;5.93;5.32;;;1.60;95.30;;;;;;5060470;28;20208;-64
2021/01/13 00:46:58;;;;;;;12.13;7.68;;;1.60;95.20;;;;;;5068273;28;20214;-65
2021/01/13 00:49:24;;;;;;;9.60;8.25;;;1.50;95.40;;;;;;5075824;28;20217;-65
2021/01/13 00:51:51;;;;;;;8.45;6.88;;;1.50;95.60;;;;;;5069593;28;20270;-63
2021/01/13 00:54:17;;;;;;;11.55;7.25;;;1.40;96.00;;;;;;5069504;28;20207;-65
2021/01/13 00:56:49;;;;;;;9.07;6.43;;;1.30;96.10;;;;;;5075805;28;20257;-64
2021/01/13 00:59:16;;;;;;;12.10;7.50;;;1.20;96.30;;;;;;5076114;28;20211;-64
2021/01/13 01:01:45;;;;;;;15.70;7.97;;;1.10;96.40;;;;;;5075561;28;20274;-63
2021/01/13 01:04:13;;;;;;;7.93;6.90;;;2.40;97.00;;;;;;5075877;28;20519;-62
2021/01/13 01:06:39;;;;;;;11.32;8.00;;;1.20;96.90;;;;;;5075263;28;20266;-61
2021/01/13 01:09:07;;;;;;;7.90;5.68;;;1.20;96.40;;;;;;5076219;28;20218;-61
2021/01/13 01:11:36;;;;;;;5.03;4.53;;;1.30;96.10;;;;;;5075377;28;20276;-65
2021/01/13 01:14:07;;;;;;;7.10;5.80;;;1.30;95.80;;;;;;5076181;28;20213;-66
2021/01/13 01:16:36;;;;;;;6.70;5.13;;;2.00;95.90;;;;;;5075586;28;20211;-68
2021/01/13 01:19:04;;;;;;;6.40;5.80;;;2.80;96.20;;;;;;5076153;28;20234;-70
2021/01/13 01:21:32;;;;;;;7.53;6.40;;;1.30;95.70;;;;;;5075742;28;20234;-67
2021/01/13 01:23:58;;;;;;;5.65;5.00;;;1.30;95.80;;;;;;5075842;28;20241;-71
2021/01/13 01:26:25;;;;;;;6.55;5.50;;;1.30;95.70;;;;;;5075654;28;20210;-69
2021/01/13 01:28:51;;;;;;;5.97;4.82;;;1.40;95.60;;;;;;5077872;28;20347;-70
2021/01/13 01:31:18;;;;;;;5.72;4.72;;;1.30;95.60;;;;;;5079124;28;20234;-71
2021/01/13 01:33:45;;;;;;;4.57;4.18;;;1.30;95.60;;;;;;5079066;28;20210;-71
2021/01/13 01:36:17;;;;;;;3.13;2.90;;;1.30;95.30;;;;;;5095343;28;20409;-69
2021/01/13 01:38:44;;;;;;;6.93;2.42;;;2.20;94.90;;;;;;5078961;28;20509;-69
2021/01/13 01:41:15;;;;;;;3.45;3.10;;;1.40;94.40;;;;;;5079402;28;20211;-69
2021/01/13 01:43:46;;;;;;;2.58;2.38;;;1.30;94.30;;;;;;5094538;28;20214;-70
2021/01/13 01:46:13;;;;;;;2.60;2.40;;;1.30;94.00;;;;;;5067037;28;20199;-70
2021/01/13 01:48:52;;;;;;;2.58;2.38;;;1.30;94.10;;;;;;5079192;28;20195;-69
2021/01/13 01:51:24;;;;;;;2.13;2.03;;;1.20;94.30;;;;;;5077234;28;20812;-70
2021/01/13 01:53:53;;;;;;;2.90;2.33;;;1.10;94.50;;;;;;5068670;28;20211;-70
2021/01/13 01:56:26;;;;;;;2.00;1.80;;;1.10;94.70;;;;;;5079201;28;20199;-70
2021/01/13 01:59:03;;;;;;;3.75;2.85;;;1.10;94.60;;;;;;5079242;28;20249;-70
2021/01/13 02:01:37;;;;;;;1.85;1.75;;;1.10;94.50;;;;;;5078780;28;20215;-70
2021/01/13 02:04:14;;;;;;;2.38;2.17;;;1.00;94.30;;;;;;5079967;28;20401;-70
2021/01/13 02:07:09;;;;;;;4.00;1.85;;;1.10;94.00;;;;;;5078452;28;20210;-70
2021/01/13 02:09:38;;;;;;;3.05;1.98;;;1.00;93.80;;;;;;5077730;28;20211;-68
2021/01/13 02:12:13;;;;;;;1.95;1.45;;;1.00;93.40;;;;;;5078784;28;20241;-69
2021/01/13 02:14:41;;;;;;;2.53;2.00;;;1.00;92.90;;;;;;5078241;28;20277;-70
2021/01/13 02:17:11;;;;;;;1.88;1.60;;;1.00;92.50;;;;;;5079012;28;20203;-70
2021/01/13 02:19:46;;;;;;;7.72;1.75;;;1.00;92.90;;;;;;5078344;28;20214;-70
2021/01/13 02:22:26;;;;;;;1.90;1.17;;;1.00;92.90;;;;;;5070397;28;20206;-70
2021/01/13 02:25:10;;;;;;;2.45;1.80;;;1.00;93.10;;;;;;5080394;28;20213;-72
2021/01/13 02:28:03;;;;;;;3.72;1.95;;;1.00;93.20;;;;;;5078268;28;20218;-72
2021/01/13 02:30:33;;;;;;;2.50;1.92;;;1.00;93.10;;;;;;5076951;28;20416;-69
2021/01/13 02:33:04;;;;;;;2.58;2.22;;;0.80;93.30;;;;;;5073334;28;20242;-70
2021/01/13 02:36:06;;;;;;;2.08;1.88;;;0.70;93.90;;;;;;5077996;28;20532;-71
2021/01/13 02:38:36;;;;;;;2.95;2.65;;;1.50;94.30;;;;;;5076479;28;20381;-71
2021/01/13 02:41:12;;;;;;;7.32;2.70;;;0.70;94.20;;;;;;5078412;28;20470;-70
2021/01/13 02:43:51;;;;;;;3.42;1.83;;;0.80;94.20;;;;;;5066882;28;20203;-69
2021/01/13 02:46:36;;;;;;;2.95;2.65;;;0.80;94.00;;;;;;5066163;28;20195;-71
2021/01/13 02:49:03;;;;;;;3.75;1.73;;;0.70;94.10;;;;;;5078318;28;20260;-71
2021/01/13 02:51:31;;;;;;;5.55;2.63;;;0.70;94.00;;;;;;5077866;28;20222;-70
2021/01/13 02:54:12;;;;;;;2.22;2.03;;;0.60;94.30;;;;;;5078105;28;20207;-71
2021/01/13 02:56:43;;;;;;;1.85;1.70;;;0.50;94.40;;;;;;5077769;28;20302;-70
2021/01/13 02:59:11;;;;;;;4.93;2.35;;;0.60;94.70;;;;;;5078125;28;20254;-71
2021/01/13 03:01:40;;;;;;;6.18;2.65;;;0.60;94.50;;;;;;5077352;28;20199;-71
2021/01/13 03:04:08;;;;;;;4.20;2.17;;;0.70;94.20;;;;;;5078331;28;20206;-70
2021/01/13 03:06:37;;;;;;;3.80;2.72;;;0.80;94.10;;;;;;5076497;28;20206;-71
2021/01/13 03:09:11;;;;;;;4.72;2.47;;;0.80;94.10;;;;;;5077860;28;20206;-70
2021/01/13 03:11:39;;;;;;;5.80;2.85;;;0.80;94.30;;;;;;5077270;28;20252;-70
2021/01/13 03:14:11;;;;;;;6.10;2.72;;;0.80;94.50;;;;;;5077955;28;20210;-71
2021/01/13 03:16:45;;;;;;;5.45;4.05;;;0.80;94.60;;;;;;5076941;28;20471;-70
2021/01/13 03:19:26;;;;;;;5.90;2.88;;;0.80;94.70;;;;;;5077977;28;20210;-70
2021/01/13 03:22:02;;;;;;;6.72;4.47;;;0.90;94.70;;;;;;5077631;28;20433;-70
2021/01/13 03:24:39;;;;;;;6.47;4.35;;;0.80;94.80;;;;;;5077228;28;20206;-70
2021/01/13 03:27:09;;;;;;;11.18;4.50;;;0.80;95.20;;;;;;5077175;28;20412;-71
2021/01/13 03:29:41;;;;;;;7.43;5.18;;;1.30;95.40;;;;;;5077529;28;20280;-69
2021/01/13 03:32:13;;;;;;;9.40;4.00;;;0.80;95.20;;;;;;5078277;28;20227;-70
2021/01/13 03:35:05;;;;;;;4.78;4.25;;;0.80;95.20;;;;;;5077067;28;20252;-69
2021/01/13 03:37:53;;;;;;;5.80;3.42;;;0.70;95.20;;;;;;5069776;28;20195;-70
2021/01/13 03:40:21;;;;;;;6.32;5.80;;;0.80;95.20;;;;;;5072644;28;20202;-69
2021/01/13 03:42:51;;;;;;;5.95;4.03;;;0.70;95.10;;;;;;5076774;28;20203;-70
2021/01/13 03:45:32;;;;;;;5.57;3.60;;;1.60;95.50;;;;;;5061385;28;20211;-70
2021/01/13 03:48:22;;;;;;;4.63;3.22;;;0.70;94.90;;;;;;5074422;28;20241;-69
2021/01/13 03:50:55;;;;;;;5.00;4.50;;;0.70;94.90;;;;;;5076354;28;20202;-69
2021/01/13 03:53:25;;;;;;;7.63;4.97;;;0.50;94.80;;;;;;5076625;28;20234;-69
2021/01/13 03:55:53;;;;;;;4.18;2.90;;;0.50;94.90;;;;;;5077079;28;20215;-68
2021/01/13 03:58:47;;;;;;;3.42;2.40;;;0.50;95.00;;;;;;5076635;28;20249;-69
2021/01/13 04:01:22;;;;;;;4.40;3.05;;;0.50;94.80;;;;;;5076353;28;20291;-69
2021/01/13 04:04:12;;;;;;;5.40;2.85;;;0.40;94.80;;;;;;5076741;28;20206;-70
2021/01/13 04:06:43;;;;;;;2.75;2.42;;;0.30;95.00;;;;;;5076453;28;20257;-71
2021/01/13 04:09:16;;;;;;;6.82;2.88;;;0.40;94.90;;;;;;5075358;28;20268;-71
2021/01/13 04:11:49;;;;;;;5.70;2.65;;;0.40;94.80;;;;;;5076436;28;20245;-71
2021/01/13 04:14:18;;;;;;;2.92;2.58;;;0.30;95.00;;;;;;5075267;28;20210;-71
2021/01/13 04:16:45;;;;;;;8.32;4.18;;;1.00;95.20;;;;;;5076543;28;20210;-71
2021/01/13 04:19:12;;;;;;;9.93;3.38;;;0.30;95.00;;;;;;5076186;28;20211;-71
2021/01/13 04:21:39;;;;;;;12.50;3.30;;;0.40;95.00;;;;;;5076789;28;20237;-71
2021/01/13 04:24:06;;;;;;;9.20;3.60;;;0.50;95.00;;;;;;5076661;28;20210;-72
2021/01/13 04:26:33;;;;;;;6.60;3.72;;;0.50;95.00;;;;;;5076405;28;20740;-72
2021/01/13 04:29:00;;;;;;;7.75;3.95;;;0.70;94.90;;;;;;5076187;28;20536;-71
2021/01/13 04:31:26;;;;;;;6.25;3.30;;;0.90;94.40;;;;;;5075886;28;20303;-72
2021/01/13 04:33:53;;;;;;;6.78;3.50;;;0.90;94.20;;;;;;5076258;28;20202;-71
2021/01/13 04:36:21;;;;;;;4.97;2.90;;;1.10;93.80;;;;;;5076248;28;20207;-70
2021/01/13 04:38:48;;;;;;;6.00;2.72;;;1.10;93.90;;;;;;5076220;28;20211;-69
2021/01/13 04:41:20;;;;;;;9.93;3.13;;;1.70;94.00;;;;;;5076025;28;20221;-71
2021/01/13 04:43:53;;;;;;;11.02;5.18;;;0.90;93.80;;;;;;5075958;28;20206;-69
2021/01/13 04:46:27;;;;;;;5.43;3.25;;;0.80;94.20;;;;;;5066598;28;20202;-69
2021/01/13 04:49:00;;;;;;;7.43;2.50;;;2.10;94.90;;;;;;5076205;28;20257;-70
2021/01/13 04:51:31;;;;;;;5.95;3.97;;;2.10;94.80;;;;;;5075771;28;20247;-70
2021/01/13 04:53:58;;;;;;;5.43;3.17;;;1.10;94.00;;;;;;5075761;28;20210;-70
2021/01/13 04:56:26;;;;;;;6.72;3.95;;;1.10;94.00;;;;;;5077344;28;20391;-70
2021/01/13 04:59:31;;;;;;;5.03;3.13;;;1.10;94.10;;;;;;5076717;28;20522;-69
2021/01/13 05:02:11;;;;;;;5.25;2.67;;;1.20;94.10;;;;;;5068444;28;20303;-70
2021/01/13 05:04:46;;;;;;;9.82;2.92;;;1.30;93.80;;;;;;5079586;28;20248;-70
2021/01/13 05:07:25;;;;;;;9.73;3.28;;;1.30;93.50;;;;;;5080612;28;20206;-70
2021/01/13 05:09:59;;;;;;;4.00;2.78;;;1.40;93.40;;;;;;5080151;28;20213;-70
2021/01/13 05:12:42;;;;;;;8.18;3.47;;;1.40;93.20;;;;;;5080166;28;20229;-70
2021/01/13 05:15:33;;;;;;;3.67;3.25;;;1.30;93.30;;;;;;5079061;28;20504;-70
2021/01/13 05:18:11;;;;;;;5.75;3.22;;;1.20;93.60;;;;;;5078915;28;20497;-70
2021/01/13 05:20:38;;;;;;;7.20;4.65;;;1.20;93.70;;;;;;5079364;28;20256;-70
2021/01/13 05:23:15;;;;;;;12.25;3.90;;;2.50;94.10;;;;;;5079786;28;20261;-70
2021/01/13 05:25:48;;;;;;;7.55;2.97;;;1.20;94.00;;;;;;5079586;28;20213;-70
2021/01/13 05:28:46;;;;;;;3.85;3.17;;;1.30;93.80;;;;;;5079529;28;20245;-70
2021/01/13 05:31:23;;;;;;;8.15;5.90;;;1.30;93.50;;;;;;5079622;28;20207;-70
2021/01/13 05:33:50;;;;;;;9.07;4.05;;;1.30;93.80;;;;;;5079849;28;20199;-70
2021/01/13 05:36:18;;;;;;;5.25;3.53;;;1.30;94.00;;;;;;5079996;28;20198;-68
2021/01/13 05:39:06;;;;;;;8.23;4.35;;;1.30;94.10;;;;;;5079023;28;20207;-70
2021/01/13 05:41:37;;;;;;;5.53;3.67;;;1.40;94.10;;;;;;5079236;28;20211;-70
2021/01/13 05:44:05;;;;;;;7.95;4.30;;;1.40;94.00;;;;;;5079062;28;20229;-70
2021/01/13 05:46:45;;;;;;;7.97;4.85;;;1.30;94.00;;;;;;5069614;28;20207;-70
2021/01/13 05:49:16;;;;;;;7.30;6.43;;;1.50;94.10;;;;;;5079075;28;20209;-69
2021/01/13 05:51:44;;;;;;;6.95;4.47;;;1.40;93.90;;;;;;5078829;28;20226;-70
2021/01/13 05:54:15;;;;;;;11.82;4.70;;;1.50;94.10;;;;;;5078982;28;20218;-69
2021/01/13 05:56:43;;;;;;;10.20;4.72;;;1.60;94.00;;;;;;5078765;28;20207;-69
2021/01/13 05:59:10;;;;;;;9.65;5.43;;;1.70;94.00;;;;;;5077707;28;20211;-70
2021/01/13 06:02:09;;;;;;;9.88;5.32;;;1.60;93.90;;;;;;5078214;28;20504;-70
2021/01/13 06:04:36;;;;;;;7.50;6.38;;;1.60;94.10;;;;;;5077401;28;20211;-69
2021/01/13 06:07:15;;;;;;;10.05;5.43;;;1.70;94.10;;;;;;5078324;28;20269;-70
2021/01/13 06:09:43;;;;;;;11.70;6.43;;;1.70;94.00;;;;;;5078695;28;20190;-69
2021/01/13 06:12:30;;;;;;;15.88;6.60;;;1.10;94.10;;;;;;5078560;28;20226;-69
2021/01/13 06:14:57;;;;;;;11.55;6.03;;;1.40;94.40;;;;;;5079226;28;20218;-69
2021/01/13 06:17:25;;;;;;;13.27;6.07;;;1.40;94.60;;;;;;5078262;28;20521;-69
2021/01/13 06:19:55;;;;;;;9.23;6.53;;;1.50;94.60;;;;;;5081685;28;20402;-70
2021/01/13 06:22:32;;;;;;;10.48;5.93;;;1.50;94.60;;;;;;5074529;28;20254;-70
2021/01/13 06:25:03;;;;;;;10.93;7.05;;;1.40;94.90;;;;;;5077405;28;20746;-69
2021/01/13 06:28:09;;;;;;;7.93;6.07;;;1.40;94.70;;;;;;5076157;28;20509;-68
2021/01/13 06:30:41;;;;;;;14.60;6.78;;;1.50;94.90;;;;;;5057926;28;20430;-69
2021/01/13 06:33:23;;;;;;;12.00;6.88;;;1.40;94.90;;;;;;5058054;28;20215;-70
2021/01/13 06:36:06;;;;;;;13.73;7.20;;;1.40;94.80;;;;;;5057999;28;20375;-69
2021/01/13 06:38:53;;;;;;;13.32;7.55;;;1.40;94.60;;;;;;5048239;28;20203;-69
2021/01/13 06:41:20;;;;;;;11.35;7.10;;;1.30;94.90;;;;;;5058083;28;20234;-69
2021/01/13 06:44:06;;;;;;;10.13;6.43;;;1.30;94.90;;;;;;5057768;28;20226;-68
2021/01/13 06:46:33;;;;;;;10.98;6.63;;;1.40;94.80;;;;;;5048527;28;20457;-68
2021/01/13 06:49:15;;;;;;;11.27;7.68;;;1.40;94.70;;;;;;5056999;28;20568;-69
2021/01/13 06:51:52;;;;;;;10.90;7.43;;;1.40;94.60;;;;;;5057662;28;20722;-70
2021/01/13 06:54:21;;;;;;;10.32;6.68;;;1.40;94.70;;;;;;5057678;28;20207;-70
2021/01/13 06:56:58;;;;;;;14.68;7.65;;;1.30;94.90;;;;;;5053934;28;20269;-70
2021/01/13 06:59:28;;;;;;;11.85;7.50;;;1.50;94.10;;;;;;5007795;28;21302;-69
2021/01/13 07:01:59;;;;;;;10.35;7.10;;;1.50;94.40;;;;;;5052891;28;20534;-69
2021/01/13 07:04:27;;;;;;;20.27;7.65;;;1.60;94.30;;;;;;5072771;28;20207;-68
2021/01/13 07:06:59;;;;;;;13.95;7.07;;;1.70;94.10;;;;;;5058207;28;20404;-68
2021/01/13 07:09:33;;;;;;;19.63;7.88;;;1.70;94.20;;;;;;5057090;28;20219;-68
2021/01/13 07:12:13;;;;;;;14.85;8.13;;;1.70;94.10;;;;;;5047031;28;20228;-67
2021/01/13 07:14:46;;;;;;;11.00;8.68;;;1.70;94.30;;;;;;5057095;28;20199;-68
2021/01/13 07:17:25;;;;;;;13.02;7.80;;;1.60;94.50;;;;;;5057563;28;20211;-69
2021/01/13 07:19:53;;;;;;;9.63;7.57;;;1.80;94.60;;;;;;5057063;28;20257;-69
2021/01/13 07:22:24;;;;;;;10.25;8.30;;;1.80;94.20;;;;;;5057175;28;20208;-69
2021/01/13 07:24:58;;;;;;;14.68;9.65;;;1.90;94.20;;;;;;5057135;28;20212;-68
2021/01/13 07:27:30;;;;;;;12.00;10.05;;;2.00;94.10;;;;;;5072225;28;20206;-69
2021/01/13 07:29:58;;;;;;;17.25;8.82;;;2.20;94.10;;;;;;5057175;28;20262;-69
2021/01/13 07:32:30;;;;;;;14.65;9.90;;;2.10;93.90;;;;;;5057066;28;20231;-69
2021/01/13 07:35:05;;;;;;;14.88;9.23;;;2.80;93.90;;;;;;5056801;28;20273;-68
2021/01/13 07:37:42;;;;;;;14.75;9.50;;;2.30;93.50;;;;;;5056872;28;20241;-69
2021/01/13 07:40:31;;;;;;;18.02;8.98;;;2.60;93.30;;;;;;5054064;28;20217;-68
2021/01/13 07:43:12;;;;;;;13.70;7.85;;;2.50;93.20;;;;;;5056623;28;20212;-68
2021/01/13 07:45:42;;;;;;;34.78;9.07;;;2.40;93.20;;;;;;5048643;28;20196;-70
2021/01/13 07:48:10;;;;;;;11.07;7.57;;;2.50;93.10;;;;;;5055583;28;20440;-70
2021/01/13 07:50:44;;;;;;;12.32;7.75;;;2.30;93.00;;;;;;5056300;28;20267;-68
2021/01/13 07:53:23;;;;;;;18.42;8.25;;;2.20;93.50;;;;;;5056584;28;20223;-68
2021/01/13 07:56:00;;;;;;;12.30;7.30;;;2.20;93.70;;;;;;5056751;28;20266;-69
2021/01/13 07:58:31;;;;;;;12.77;7.60;;;2.10;93.60;;;;;;5056867;28;20195;-70
2021/01/13 08:01:10;;;;;;;10.23;7.20;;;2.20;93.80;;;;;;5056678;28;20265;-69
2021/01/13 08:03:36;;;;;;;16.08;8.93;;;2.10;93.70;;;;;;5056555;28;20245;-69
2021/01/13 08:06:29;;;;;;;11.90;8.63;;;2.20;93.80;;;;;;5056085;28;20214;-68
2021/01/13 08:09:05;;;;;;;15.70;8.25;;;2.10;93.80;;;;;;5049091;28;20211;-68
2021/01/13 08:12:05;;;;;;;9.60;7.20;;;1.80;94.60;;;;;;5056206;28;20245;-69
2021/01/13 08:15:03;;;;;;;16.45;9.95;;;1.80;94.80;;;;;;5056039;28;20478;-69
2021/01/13 08:17:55;;;;;;;19.83;9.15;;;1.80;94.80;;;;;;5048904;28;20465;-69
2021/01/13 08:21:15;;;;;;;19.85;7.65;;;1.80;94.70;;;;;;5054365;28;20214;-69
2021/01/13 08:26:46;;;;;;;7.60;6.72;;;1.80;94.50;;;;;;5052765;28;20532;-68
2021/01/13 08:29:21;;;;;;;11.20;7.13;;;1.80;94.80;;;;;;5064799;28;20245;-67
2021/01/13 08:32:00;;;;;;;11.07;7.20;;;2.00;94.80;;;;;;5075997;28;20233;-68
2021/01/13 08:34:41;;;;;;;8.55;6.22;;;2.10;94.20;;;;;;5076189;28;20240;-67
2021/01/13 08:37:09;;;;;;;9.82;7.05;;;2.10;93.90;;;;;;5075652;28;20516;-67
2021/01/13 08:39:43;;;;;;;13.82;5.45;;;2.20;93.80;;;;;;5075024;28;20207;-68
2021/01/13 08:42:23;;;;;;;11.30;7.03;;;2.10;93.60;;;;;;5091644;28;20238;-69
2021/01/13 08:44:52;;;;;;;9.38;5.53;;;2.20;93.70;;;;;;5070751;28;20210;-67
2021/01/13 08:47:19;;;;;;;9.27;6.20;;;2.20;93.70;;;;;;5087880;28;20270;-66
2021/01/13 08:49:47;;;;;;;7.95;5.88;;;2.20;93.60;;;;;;5070582;28;20210;-67
2021/01/13 08:52:15;;;;;;;12.30;6.03;;;2.20;93.50;;;;;;5056147;28;20273;-68
2021/01/13 08:54:48;;;;;;;18.42;7.75;;;2.20;93.50;;;;;;5059380;28;20220;-69
2021/01/13 08:57:16;;;;;;;9.48;5.40;;;2.00;93.70;;;;;;5057216;28;20622;-69
2021/01/13 08:59:48;;;;;;;9.48;6.55;;;1.90;94.00;;;;;;5061968;28;20224;-69
2021/01/13 09:02:19;;;;;;;15.02;7.40;;;1.90;94.10;;;;;;5060489;28;20211;-70
2021/01/13 09:04:58;;;;;;;8.50;7.65;;;2.00;94.20;;;;;;5060050;28;20203;-69
2021/01/13 09:07:26;;;;;;;10.38;8.75;;;1.90;94.10;;;;;;5059187;28;20241;-71
2021/01/13 09:09:57;;;;;;;9.50;7.47;;;1.90;94.10;;;;;;5074354;28;20226;-70
2021/01/13 09:12:37;;;;;;;14.02;8.45;;;1.90;94.10;;;;;;5076157;28;20222;-69
2021/01/13 09:15:06;;;;;;;12.93;9.52;;;2.00;94.10;;;;;;5075009;28;20201;-70
2021/01/13 09:17:38;;;;;;;14.60;7.88;;;1.90;94.40;;;;;;5066043;28;20207;-69
2021/01/13 09:20:17;;;;;;;15.27;7.90;;;2.00;94.10;;;;;;5064833;28;20207;-70
2021/01/13 09:22:46;;;;;;;16.67;8.50;;;2.20;94.00;;;;;;5057158;28;20219;-70
2021/01/13 09:25:16;;;;;;;13.60;7.05;;;2.30;93.60;;;;;;5065041;28;20203;-69
2021/01/13 09:28:03;;;;;;;13.82;7.38;;;2.40;93.30;;;;;;5065406;28;20215;-68
2021/01/13 09:30:38;;;;;;;7.88;5.90;;;2.50;92.90;;;;;;5054691;28;20203;-67
2021/01/13 09:33:07;;;;;;;9.35;6.20;;;2.50;92.80;;;;;;5064718;28;20227;-68
2021/01/13 09:35:40;;;;;;;11.85;6.05;;;2.50;92.80;;;;;;5066570;28;20506;-68
2021/01/13 09:38:12;;;;;;;10.13;5.90;;;2.50;92.40;;;;;;5075004;28;20211;-67
2021/01/13 09:41:03;;;;;;;7.50;6.07;;;2.60;92.70;;;;;;5061632;28;20203;-66
2021/01/13 09:43:32;;;;;;;10.13;5.97;;;2.50;92.20;;;;;;5071325;28;20674;-66
2021/01/13 09:46:05;;;;;;;6.93;5.80;;;2.60;92.30;;;;;;5069875;28;20203;-65
2021/01/13 09:48:34;;;;;;;16.65;6.93;;;2.50;92.10;;;;;;5076397;28;20207;-65
2021/01/13 09:51:04;;;;;;;12.07;5.45;;;2.60;92.00;;;;;;5077933;28;20199;-65
2021/01/13 09:53:33;;;;;;;11.80;5.53;;;2.60;91.60;;;;;;5078371;28;20242;-66
2021/01/13 09:56:06;;;;;;;16.42;7.03;;;2.50;91.60;;;;;;5079101;28;20202;-65
2021/01/13 09:58:37;;;;;;;10.45;5.65;;;2.60;91.80;;;;;;5078577;28;20225;-65
2021/01/13 10:01:30;;;;;;;13.35;6.40;;;3.70;91.80;;;;;;5063075;28;20268;-65
2021/01/13 10:04:00;;;;;;;9.98;7.50;;;2.60;91.30;;;;;;5073203;28;20517;-66
2021/01/13 10:06:29;;;;;;;10.35;6.63;;;2.70;91.30;;;;;;5078769;28;20266;-67
2021/01/13 10:09:16;;;;;;;13.65;5.00;;;3.70;91.80;;;;;;5078352;28;20280;-66
2021/01/13 10:11:43;;;;;;;17.80;6.90;;;2.80;91.60;;;;;;5078507;28;20207;-66
2021/01/13 10:14:13;;;;;;;9.40;6.05;;;2.80;91.10;;;;;;5078165;28;20212;-66
2021/01/13 10:16:43;;;;;;;15.05;6.25;;;2.80;91.60;;;;;;5078839;28;20234;-65
2021/01/13 10:19:11;;;;;;;15.80;7.15;;;2.80;91.50;;;;;;5078514;28;20260;-66
2021/01/13 10:21:40;;;;;;;14.80;8.52;;;2.80;91.50;;;;;;5077056;28;20274;-69
2021/01/13 10:24:12;;;;;;;10.68;7.40;;;2.90;91.50;;;;;;5076564;28;20459;-65
2021/01/13 10:26:45;;;;;;;9.27;6.82;;;2.80;91.80;;;;;;5076627;28;20206;-66
2021/01/13 10:29:19;;;;;;;7.10;5.07;;;2.90;91.90;;;;;;5077985;28;20517;-65
2021/01/13 10:31:46;;;;;;;7.63;5.38;;;3.20;91.30;;;;;;5076846;28;20518;-65
2021/01/13 10:34:14;;;;;;;9.68;6.13;;;3.30;90.90;;;;;;5079773;28;20501;-64
2021/01/13 10:36:42;;;;;;;6.85;5.65;;;3.40;90.80;;;;;;5077648;28;20517;-66
2021/01/13 10:39:16;;;;;;;9.52;5.82;;;3.40;91.00;;;;;;5072439;28;20204;-65
2021/01/13 10:41:49;;;;;;;10.95;6.20;;;3.50;90.70;;;;;;5071487;28;20557;-65
2021/01/13 10:44:21;;;;;;;13.65;6.85;;;3.50;90.50;;;;;;5077336;28;20490;-65
2021/01/13 10:46:55;;;;;;;18.13;7.38;;;3.50;90.80;;;;;;5067509;28;20284;-66
2021/01/13 10:49:27;;;;;;;14.75;5.70;;;3.50;90.80;;;;;;5066721;28;20221;-66
2021/01/13 10:52:20;;;;;;;16.50;8.35;;;3.40;90.60;;;;;;5072520;28;20205;-65
2021/01/13 10:54:49;;;;;;;9.40;4.55;;;3.30;90.60;;;;;;5076832;28;20215;-66
2021/01/13 10:57:23;;;;;;;8.75;5.00;;;3.30;90.40;;;;;;5077601;28;20210;-67
2021/01/13 11:00:02;;;;;;;10.57;4.30;;;4.20;90.70;;;;;;5077421;28;20225;-66
2021/01/13 11:02:29;;;;;;;5.88;3.83;;;3.00;90.30;;;;;;5076762;28;20215;-66
2021/01/13 11:05:00;;;;;;;10.57;4.20;;;3.00;90.10;;;;;;5076000;28;20242;-66
2021/01/13 11:07:40;;;;;;;10.38;5.07;;;4.10;90.40;;;;;;5076153;28;20218;-67
2021/01/13 11:10:13;;;;;;;8.35;3.88;;;2.80;90.50;;;;;;5074918;28;20207;-66
2021/01/13 11:12:41;;;;;;;10.48;4.07;;;3.00;89.80;;;;;;5074595;28;20253;-66
2021/01/13 11:15:10;;;;;;;8.00;3.55;;;3.00;89.50;;;;;;5073421;28;20424;-66
2021/01/13 11:17:39;;;;;;;7.45;3.88;;;3.10;89.40;;;;;;5073566;28;20313;-67
2021/01/13 11:20:08;;;;;;;5.15;3.80;;;3.10;89.10;;;;;;5075691;28;20201;-66
2021/01/13 11:22:45;;;;;;;13.88;3.97;;;3.30;87.60;;;;;;5075196;28;20903;-67
2021/01/13 11:25:30;;;;;;;6.35;2.90;;;3.40;86.30;;;;;;5077400;28;20528;-66
2021/01/13 11:28:05;;;;;;;8.88;3.70;;;3.40;86.50;;;;;;5076894;28;20463;-67
2021/01/13 11:30:37;;;;;;;6.90;3.55;;;3.60;86.30;;;;;;5077189;28;20204;-66
2021/01/13 11:33:05;;;;;;;12.63;4.22;;;3.70;86.20;;;;;;5076879;28;20248;-67
2021/01/13 11:35:46;;;;;;;5.45;3.70;;;3.80;86.00;;;;;;5075776;28;20211;-68
2021/01/13 11:38:41;;;;;;;10.98;4.30;;;3.80;85.60;;;;;;5071945;28;20236;-66
2021/01/13 11:41:45;;;;;;;9.82;4.95;;;3.70;85.20;;;;;;5073738;28;20387;-67
2021/01/13 11:44:30;;;;;;;5.50;3.40;;;3.80;84.20;;;;;;5076545;28;20223;-67
2021/01/13 11:47:18;;;;;;;5.90;3.22;;;4.00;84.10;;;;;;5069449;28;20271;-68
2021/01/13 11:49:58;;;;;;;5.88;3.53;;;4.00;83.80;;;;;;5071854;28;20232;-68
2021/01/13 11:52:33;;;;;;;3.63;3.33;;;4.00;84.40;;;;;;5076294;28;20266;-67
2021/01/13 11:54:59;;;;;;;9.48;4.05;;;4.00;83.70;;;;;;5076559;28;20215;-70
2021/01/13 11:57:33;;;;;;;5.75;3.10;;;4.00;84.10;;;;;;5078297;28;20546;-69
2021/01/13 12:00:17;;;;;;;5.47;3.03;;;4.00;84.70;;;;;;5076638;28;20228;-69
2021/01/13 12:02:53;;;;;;;8.60;3.20;;;3.90;84.70;;;;;;5091213;28;20480;-69
2021/01/13 12:05:30;;;;;;;5.32;2.97;;;4.00;84.10;;;;;;5073376;28;20450;-69
2021/01/13 12:08:02;;;;;;;3.72;3.03;;;4.30;83.00;;;;;;5074119;28;20237;-71
2021/01/13 12:10:37;;;;;;;6.75;3.80;;;4.40;82.60;;;;;;5073710;28;20276;-69
2021/01/13 12:13:26;;;;;;;11.07;4.38;;;4.30;83.00;;;;;;5074298;28;20231;-70
2021/01/13 12:16:00;;;;;;;7.78;3.35;;;4.30;83.40;;;;;;5073560;28;20232;-70
2021/01/13 12:18:45;;;;;;;7.53;4.25;;;4.40;82.60;;;;;;5071669;28;20263;-70
2021/01/13 12:21:17;;;;;;;7.22;2.78;;;4.50;83.00;;;;;;5074556;28;20221;-71
2021/01/13 12:23:51;;;;;;;6.75;4.13;;;4.60;81.40;;;;;;5073381;28;20216;-70
2021/01/13 12:26:27;;;;;;;9.02;3.40;;;6.10;82.40;;;;;;5072714;28;20209;-70
2021/01/13 12:28:55;;;;;;;9.73;4.43;;;4.90;82.20;;;;;;5071058;28;20252;-70
2021/01/13 12:31:26;;;;;;;3.83;3.10;;;4.90;81.00;;;;;;5071156;28;20619;-68
2021/01/13 12:33:58;;;;;;;5.10;4.10;;;5.50;82.20;;;;;;5073777;28;20556;-69
2021/01/13 12:36:36;;;;;;;6.30;3.95;;;4.50;82.40;;;;;;5075414;28;20212;-68
2021/01/13 12:39:05;;;;;;;6.70;4.10;;;4.50;83.20;;;;;;5071833;28;20263;-68
2021/01/13 12:41:34;;;;;;;7.78;3.60;;;4.30;84.10;;;;;;5073036;28;20204;-69
2021/01/13 12:44:04;;;;;;;5.57;3.80;;;4.10;84.50;;;;;;5076150;28;20284;-69
2021/01/13 12:46:36;;;;;;;11.65;3.47;;;4.10;85.00;;;;;;5067639;28;20209;-68
2021/01/13 12:49:04;;;;;;;4.97;3.95;;;4.10;85.00;;;;;;5068423;28;20214;-69
2021/01/13 12:51:31;;;;;;;9.40;3.80;;;4.20;84.60;;;;;;5068650;28;20275;-69
2021/01/13 12:53:59;;;;;;;8.82;4.60;;;4.20;83.70;;;;;;5074894;28;20564;-69
2021/01/13 12:56:36;;;;;;;8.68;3.83;;;4.30;84.00;;;;;;5075035;28;20198;-69
2021/01/13 12:59:03;;;;;;;8.73;3.90;;;4.40;83.10;;;;;;5075623;28;20216;-69
2021/01/13 13:01:37;;;;;;;14.32;4.03;;;4.50;84.60;;;;;;5073409;28;20217;-68
2021/01/13 13:04:06;;;;;;;8.30;3.85;;;5.70;85.20;;;;;;5070086;28;20221;-68
2021/01/13 13:06:38;;;;;;;11.80;4.80;;;5.20;84.40;;;;;;5074515;28;20455;-69
2021/01/13 13:09:10;;;;;;;9.77;3.55;;;4.60;83.50;;;;;;5072548;28;20348;-70
2021/01/13 13:11:38;;;;;;;10.02;4.90;;;4.70;82.70;;;;;;5073671;28;20232;-68
2021/01/13 13:14:08;;;;;;;6.20;3.40;;;4.30;82.80;;;;;;5069991;28;20563;-69
2021/01/13 13:16:35;;;;;;;7.82;4.05;;;4.30;83.80;;;;;;5068531;28;20213;-69
2021/01/13 13:19:03;;;;;;;4.90;2.92;;;4.40;83.40;;;;;;5075998;28;20203;-68
2021/01/13 13:21:41;;;;;;;17.60;5.18;;;4.40;84.00;;;;;;5074328;28;20208;-69
2021/01/13 13:24:08;;;;;;;17.75;5.07;;;4.40;83.40;;;;;;5078715;28;20214;-69
2021/01/13 13:26:35;;;;;;;12.60;4.15;;;4.60;83.10;;;;;;5074820;28;20499;-70
2021/01/13 13:29:02;;;;;;;5.32;3.65;;;4.60;83.20;;;;;;5079226;28;20234;-69